Time;durP1;ratioP1;P1;durP2;ratioP2;P2;SDS_P1;SDS_P2;PMS_P1;PMS_P2;Temp;Humidity;BMP_temperature;BMP_pressure;BME280_temperature;BME280_humidity;BME280_pressure;Samples;Min_cycle;Max_cycle;Signal;HPM_P1;HPM_P2
2023/05/26 04:47:10;;;;;;;23.80;16.87;;;10.70;99.90;;;;;;5073881;28;20560;-84
2023/05/26 04:56:41;;;;;;;25.00;15.37;;;;;;;;;;5074222;28;20592;-85
2023/05/26 05:04:49;;;;;;;22.47;14.13;;;;;;;;;;5135241;27;20270;-84
2023/05/26 05:13:47;;;;;;;21.40;14.60;;;;;;;;;;5089469;28;20628;-83
2023/05/26 05:20:09;;;;;;;23.87;12.63;;;9.40;99.90;;;;;;5115155;27;20274;-83
2023/05/26 05:25:20;;;;;;;17.87;11.00;;;;;;;;;;5135671;27;20611;-84
2023/05/26 05:30:14;;;;;;;15.73;11.20;;;;;;;;;;4938352;27;5477749;-84
2023/05/26 05:34:49;;;;;;;14.93;10.10;;;11.70;99.90;;;;;;5112153;27;20539;-85
2023/05/26 05:39:23;;;;;;;20.87;10.20;;;11.70;99.90;;;;;;5071162;28;20604;-85
2023/05/26 05:43:18;;;;;;;13.97;9.80;;;;;;;;;;5071705;28;20602;-83
2023/05/26 05:47:07;;;;;;;16.00;9.80;;;12.00;99.90;;;;;;5176186;27;20283;-83
2023/05/26 05:51:08;;;;;;;15.60;10.30;;;;;;;;;;5133232;27;20320;-84
2023/05/26 05:55:12;;;;;;;15.60;9.93;;;12.20;99.90;;;;;;5175867;27;20562;-82
2023/05/26 05:59:13;;;;;;;15.53;9.77;;;;;;;;;;5073461;28;20505;-85
2023/05/26 06:03:06;;;;;;;16.30;9.40;;;12.50;99.90;;;;;;5134419;27;20294;-84
2023/05/26 06:07:07;;;;;;;13.07;9.37;;;12.50;99.90;;;;;;5134529;27;20267;-85
2023/05/26 06:12:10;;;;;;;13.73;9.07;;;;;;;;;;5135186;27;20287;-78
2023/05/26 06:16:04;;;;;;;16.70;8.37;;;;;;;;;;5133963;27;20289;-83
2023/05/26 06:18:30;;;;;;;11.60;8.77;;;;;;;;;;5115919;28;20661;-83
2023/05/26 06:22:05;;;;;;;14.13;8.07;;;13.00;99.90;;;;;;5134063;27;20293;-84
2023/05/26 06:24:30;;;;;;;17.20;8.90;;;13.00;99.90;;;;;;5135059;27;20231;-85
2023/05/26 06:28:06;;;;;;;14.13;8.67;;;12.90;99.90;;;;;;5134553;27;20279;-84
2023/05/26 06:33:08;;;;;;;12.20;8.57;;;13.30;99.90;;;;;;5135362;27;20283;-85
2023/05/26 06:35:34;;;;;;;15.60;8.30;;;;;;;;;;5138414;27;20270;-86
2023/05/26 06:38:00;;;;;;;12.20;8.90;;;;;;;;;;5136631;28;20175;-84
2023/05/26 06:41:06;;;;;;;20.00;8.63;;;;;;;;;;5134199;27;20275;-84
2023/05/26 06:43:32;;;;;;;15.10;8.57;;;13.80;99.90;;;;;;5134230;28;20222;-85
2023/05/26 06:45:57;;;;;;;15.40;10.00;;;13.90;99.90;;;;;;5134748;27;20170;-85
2023/05/26 06:48:23;;;;;;;25.40;9.13;;;14.00;99.90;;;;;;5134853;27;20191;-85
2023/05/26 06:50:49;;;;;;;18.60;8.73;;;14.00;99.90;;;;;;5133206;28;20175;-84
2023/05/26 06:53:14;;;;;;;16.63;8.80;;;14.30;99.90;;;;;;5133859;27;20193;-84
2023/05/26 06:55:40;;;;;;;18.17;9.53;;;14.20;99.90;;;;;;5133685;28;20560;-85
2023/05/26 06:58:06;;;;;;;14.50;9.37;;;14.30;99.90;;;;;;5135012;27;20170;-85
2023/05/26 07:00:31;;;;;;;15.80;8.90;;;14.20;99.90;;;;;;5134286;27;20560;-85
2023/05/26 07:02:57;;;;;;;17.40;9.47;;;14.30;99.90;;;;;;5133052;28;20281;-84
2023/05/26 07:05:23;;;;;;;13.17;9.43;;;14.30;99.90;;;;;;5132558;28;20178;-84
2023/05/26 07:07:49;;;;;;;17.37;9.00;;;14.20;99.90;;;;;;5132499;28;20182;-86
2023/05/26 07:10:14;;;;;;;17.27;9.03;;;14.30;99.90;;;;;;5134587;27;20175;-84
2023/05/26 07:12:41;;;;;;;10.97;8.63;;;14.50;99.90;;;;;;5135019;27;20191;-85
2023/05/26 07:15:07;;;;;;;17.90;8.87;;;14.70;99.90;;;;;;5137270;27;20167;-83
2023/05/26 07:17:33;;;;;;;12.23;9.57;;;14.90;99.90;;;;;;5141469;27;20220;-84
2023/05/26 07:19:58;;;;;;;11.07;8.83;;;15.10;99.90;;;;;;5143440;27;20607;-84
2023/05/26 07:22:24;;;;;;;14.60;8.57;;;15.20;99.90;;;;;;5142744;27;20609;-84
2023/05/26 07:24:50;;;;;;;18.60;8.90;;;15.30;99.90;;;;;;5144218;27;20602;-84
2023/05/26 07:27:15;;;;;;;16.93;9.50;;;15.40;99.90;;;;;;5134022;28;20171;-85
2023/05/26 07:29:41;;;;;;;15.13;8.77;;;15.50;99.90;;;;;;5132113;28;20179;-84
2023/05/26 07:32:06;;;;;;;13.63;8.37;;;15.60;99.90;;;;;;5131196;28;20218;-84
2023/05/26 07:34:32;;;;;;;13.63;9.23;;;15.60;99.90;;;;;;5131240;28;20221;-82
2023/05/26 07:36:58;;;;;;;14.20;9.17;;;15.80;99.90;;;;;;5132666;28;20675;-82
2023/05/26 07:39:23;;;;;;;12.73;9.20;;;16.00;99.90;;;;;;5132083;28;20243;-80
2023/05/26 07:41:49;;;;;;;16.20;10.70;;;16.10;99.90;;;;;;5133361;27;20194;-81
2023/05/26 07:44:15;;;;;;;10.43;9.33;;;16.30;99.90;;;;;;5133727;28;20175;-81
2023/05/26 07:46:40;;;;;;;13.73;9.03;;;16.50;99.90;;;;;;5134158;28;20543;-81
2023/05/26 07:49:06;;;;;;;12.37;8.57;;;16.70;99.90;;;;;;5135396;27;20179;-82
2023/05/26 07:51:32;;;;;;;12.57;8.67;;;16.90;99.90;;;;;;5125416;28;20239;-82
2023/05/26 07:53:58;;;;;;;10.20;7.67;;;17.00;99.90;;;;;;5123494;28;20175;-82
2023/05/26 07:56:23;;;;;;;12.30;8.37;;;17.10;99.90;;;;;;5125163;28;20182;-82
2023/05/26 07:58:49;;;;;;;13.00;8.87;;;17.30;99.90;;;;;;5119716;28;20181;-80
2023/05/26 08:01:15;;;;;;;10.53;8.83;;;17.50;99.90;;;;;;5117962;28;20174;-80
2023/05/26 08:03:40;;;;;;;15.30;9.13;;;17.50;99.90;;;;;;5121196;28;20643;-81
2023/05/26 08:06:07;;;;;;;13.13;8.20;;;17.50;99.90;;;;;;5120104;28;20670;-81
2023/05/26 08:08:32;;;;;;;12.10;7.77;;;17.70;99.90;;;;;;5119886;28;20168;-81
2023/05/26 08:10:58;;;;;;;10.30;7.20;;;17.80;99.90;;;;;;5118650;28;20183;-80
2023/05/26 08:13:24;;;;;;;8.83;6.90;;;18.00;99.90;;;;;;5117445;28;20223;-81
2023/05/26 08:15:49;;;;;;;11.87;7.10;;;18.40;99.90;;;;;;5117494;28;20232;-81
2023/05/26 08:18:15;;;;;;;10.43;7.20;;;18.70;99.90;;;;;;5119747;28;20207;-81
2023/05/26 08:20:41;;;;;;;13.47;7.97;;;18.80;99.90;;;;;;5118946;28;20191;-81
2023/05/26 08:23:06;;;;;;;14.23;7.93;;;19.30;99.90;;;;;;5118083;28;20199;-81
2023/05/26 08:25:32;;;;;;;14.17;8.37;;;19.70;99.90;;;;;;5117207;28;20597;-80
2023/05/26 08:27:58;;;;;;;12.93;8.77;;;20.10;99.90;;;;;;5117943;28;20164;-82
2023/05/26 08:30:23;;;;;;;9.80;8.17;;;20.40;99.90;;;;;;5116095;28;20179;-82
2023/05/26 08:32:49;;;;;;;13.37;7.93;;;20.70;99.90;;;;;;5116380;28;20680;-82
2023/05/26 08:35:14;;;;;;;10.93;8.10;;;21.00;99.90;;;;;;5118113;28;20643;-81
2023/05/26 08:37:40;;;;;;;11.67;7.87;;;21.00;99.90;;;;;;5116227;28;20682;-81
2023/05/26 08:40:06;;;;;;;13.77;7.10;;;21.10;99.90;;;;;;5115815;28;20614;-81
2023/05/26 08:42:43;;;;;;;13.43;7.53;;;21.00;99.90;;;;;;5117640;28;20188;-82
2023/05/26 08:45:09;;;;;;;11.10;7.60;;;21.20;99.90;;;;;;5117296;28;20182;-82
2023/05/26 08:47:35;;;;;;;10.40;8.17;;;21.20;99.90;;;;;;5119160;28;20200;-84
2023/05/26 08:50:04;;;;;;;12.30;7.63;;;21.40;99.90;;;;;;5119633;28;20179;-84
2023/05/26 08:52:30;;;;;;;11.67;8.10;;;21.40;99.90;;;;;;5118675;28;20195;-83
2023/05/26 08:54:56;;;;;;;9.53;7.57;;;21.40;99.90;;;;;;5118323;28;20212;-83
2023/05/26 08:57:22;;;;;;;9.10;7.67;;;21.50;99.90;;;;;;5118978;28;20529;-83
2023/05/26 08:59:49;;;;;;;9.90;7.43;;;21.70;99.90;;;;;;5116721;28;20254;-83
2023/05/26 09:02:15;;;;;;;11.57;8.63;;;21.80;99.90;;;;;;5117953;28;20194;-85
2023/05/26 09:04:41;;;;;;;9.63;7.57;;;21.80;99.90;;;;;;5115817;28;20174;-83
2023/05/26 09:07:07;;;;;;;12.17;8.50;;;21.60;99.90;;;;;;5118342;28;20197;-84
2023/05/26 09:09:33;;;;;;;11.67;7.80;;;21.70;99.90;;;;;;5117944;28;20187;-85
2023/05/26 09:11:59;;;;;;;12.63;7.63;;;22.00;99.90;;;;;;5119173;28;20192;-85
2023/05/26 09:14:25;;;;;;;9.93;7.37;;;22.30;99.90;;;;;;5122979;28;20170;-84
2023/05/26 09:16:52;;;;;;;9.70;7.90;;;22.60;99.90;;;;;;5119513;28;20182;-82
2023/05/26 09:19:18;;;;;;;9.27;7.70;;;22.80;99.90;;;;;;5116253;28;20310;-83
2023/05/26 09:21:48;;;;;;;12.30;8.47;;;23.00;99.90;;;;;;5115497;28;20203;-82
2023/05/26 09:24:16;;;;;;;11.63;8.53;;;23.20;99.90;;;;;;5115705;28;20205;-86
2023/05/26 09:26:44;;;;;;;11.90;7.80;;;23.60;99.90;;;;;;5117282;28;20215;-84
2023/05/26 09:29:10;;;;;;;11.63;8.20;;;23.80;99.90;;;;;;5117353;28;20710;-82
2023/05/26 09:31:40;;;;;;;10.10;7.13;;;23.80;99.90;;;;;;5116109;28;20220;-84
2023/05/26 09:34:07;;;;;;;13.77;7.77;;;24.10;99.90;;;;;;5116779;28;20191;-81
2023/05/26 09:36:35;;;;;;;10.73;7.83;;;24.30;99.90;;;;;;5115883;28;20291;-85
2023/05/26 09:39:01;;;;;;;10.10;7.93;;;24.40;99.90;;;;;;5117123;28;20185;-84
2023/05/26 09:41:36;;;;;;;10.70;8.13;;;24.40;99.90;;;;;;5117264;28;20167;-83
2023/05/26 09:44:14;;;;;;;9.87;7.87;;;24.50;99.90;;;;;;5117575;28;20535;-83
2023/05/26 09:46:42;;;;;;;9.63;6.63;;;24.40;99.90;;;;;;5117896;28;20257;-83
2023/05/26 09:49:16;;;;;;;15.33;7.80;;;24.40;99.90;;;;;;5115936;28;20601;-84
2023/05/26 09:51:44;;;;;;;9.97;7.23;;;24.60;99.90;;;;;;5117363;28;20197;-84
2023/05/26 09:54:10;;;;;;;9.03;6.43;;;24.60;99.90;;;;;;5117149;28;20182;-82
2023/05/26 09:56:56;;;;;;;12.47;7.20;;;24.50;99.90;;;;;;5117666;28;20175;-82
2023/05/26 09:59:31;;;;;;;11.53;7.27;;;24.40;99.90;;;;;;5117473;28;20187;-82
2023/05/26 10:01:57;;;;;;;13.43;6.83;;;24.40;99.90;;;;;;5117169;28;20201;-82
2023/05/26 10:04:24;;;;;;;8.97;6.70;;;24.50;99.90;;;;;;5115960;28;20641;-82
2023/05/26 10:06:52;;;;;;;9.93;6.90;;;24.70;99.90;;;;;;5116465;28;20695;-83
2023/05/26 10:09:22;;;;;;;8.80;5.73;;;24.90;99.90;;;;;;5117035;28;20258;-78
2023/05/26 10:11:49;;;;;;;9.27;5.80;;;25.20;99.70;;;;;;5116435;28;20743;-80
2023/05/26 10:14:15;;;;;;;8.30;6.33;;;25.40;99.90;;;;;;5116516;28;20226;-81
2023/05/26 10:16:42;;;;;;;9.63;6.90;;;25.50;99.90;;;;;;5116950;28;20175;-80
2023/05/26 10:19:08;;;;;;;9.40;6.70;;;25.60;99.90;;;;;;5116637;28;20671;-80
2023/05/26 10:21:39;;;;;;;10.00;6.70;;;25.30;99.90;;;;;;5116758;28;20197;-80
2023/05/26 10:24:34;;;;;;;11.00;6.67;;;25.30;99.90;;;;;;5117229;28;20180;-79
2023/05/26 10:27:11;;;;;;;8.00;5.70;;;25.60;99.90;;;;;;5115166;28;20595;-81
2023/05/26 10:29:47;;;;;;;13.40;6.03;;;25.90;99.30;;;;;;5115916;28;20242;-78
2023/05/26 10:32:40;;;;;;;13.60;6.90;;;26.00;99.90;;;;;;5120522;28;20758;-80
2023/05/26 10:35:30;;;;;;;10.27;7.20;;;26.50;99.90;;;;;;5120800;28;20199;-80
2023/05/26 10:38:16;;;;;;;7.93;6.30;;;26.60;96.00;;;;;;5118059;28;20497;-79
2023/05/26 10:40:49;;;;;;;10.30;7.43;;;26.50;98.50;;;;;;5120050;28;20219;-78
2023/05/26 10:43:26;;;;;;;11.10;7.47;;;26.00;97.40;;;;;;5118412;28;20202;-80
2023/05/26 10:46:03;;;;;;;12.43;7.27;;;25.90;97.80;;;;;;5115310;28;20160;-78
2023/05/26 10:48:56;;;;;;;12.37;7.60;;;25.30;99.10;;;;;;5114388;28;20179;-78
2023/05/26 10:51:26;;;;;;;9.20;7.03;;;24.50;98.40;;;;;;5115316;28;20148;-78
2023/05/26 10:53:56;;;;;;;9.07;7.37;;;24.00;99.20;;;;;;5115772;28;20174;-79
2023/05/26 10:56:25;;;;;;;8.97;7.67;;;24.40;99.90;;;;;;5115612;28;20175;-82
2023/05/26 10:58:56;;;;;;;9.50;7.17;;;25.00;99.90;;;;;;5115348;28;20179;-80
2023/05/26 11:01:27;;;;;;;10.77;6.80;;;25.40;99.90;;;;;;5114792;28;20209;-81
2023/05/26 11:04:08;;;;;;;11.30;6.97;;;25.30;97.50;;;;;;5116669;28;20182;-81
2023/05/26 11:06:58;;;;;;;12.00;6.70;;;24.90;97.00;;;;;;5116807;28;20546;-81
2023/05/26 11:09:27;;;;;;;10.37;6.40;;;25.20;99.90;;;;;;5114113;28;20254;-82
2023/05/26 11:11:57;;;;;;;12.60;7.37;;;26.10;98.70;;;;;;5113663;28;20234;-81
2023/05/26 11:14:33;;;;;;;8.03;6.93;;;26.40;99.80;;;;;;5115354;28;20171;-82
2023/05/26 11:17:01;;;;;;;14.73;6.57;;;26.30;97.30;;;;;;5116064;28;20173;-82
2023/05/26 11:19:38;;;;;;;12.30;6.63;;;25.50;95.40;;;;;;5116803;28;20196;-83
2023/05/26 11:22:07;;;;;;;10.77;6.30;;;24.60;99.90;;;;;;5115798;28;20198;-83
2023/05/26 11:24:33;;;;;;;7.73;5.37;;;24.60;99.40;;;;;;5115710;28;20221;-82
2023/05/26 11:27:01;;;;;;;8.53;5.80;;;25.30;99.90;;;;;;5119455;28;20177;-82
2023/05/26 11:29:28;;;;;;;7.50;5.43;;;26.50;99.10;;;;;;5119265;28;20179;-82
2023/05/26 11:31:54;;;;;;;8.13;5.97;;;26.90;94.80;;;;;;5120839;28;20214;-84
2023/05/26 11:34:21;;;;;;;10.10;6.53;;;27.60;96.90;;;;;;5118894;28;20248;-85
2023/05/26 11:36:48;;;;;;;12.03;6.50;;;28.10;91.90;;;;;;5121107;28;20179;-82
2023/05/26 11:39:15;;;;;;;8.63;5.63;;;28.40;93.90;;;;;;5120970;28;20243;-82
2023/05/26 11:41:41;;;;;;;6.83;5.83;;;28.20;90.90;;;;;;5121497;28;20183;-83
2023/05/26 11:44:12;;;;;;;8.33;6.07;;;26.90;91.20;;;;;;5120215;28;20202;-82
2023/05/26 11:46:39;;;;;;;8.30;6.50;;;25.80;93.00;;;;;;5120406;28;20168;-83
2023/05/26 11:49:11;;;;;;;6.63;5.83;;;26.10;94.40;;;;;;5123162;28;20197;-84
2023/05/26 11:51:36;;;;;;;9.70;6.50;;;26.20;92.80;;;;;;5126296;28;20266;-82
2023/05/26 11:54:08;;;;;;;11.20;6.00;;;25.90;95.10;;;;;;5121860;28;20210;-83
2023/05/26 11:56:35;;;;;;;9.87;5.53;;;25.30;93.30;;;;;;5119622;28;20205;-85
2023/05/26 11:59:01;;;;;;;9.20;5.10;;;24.50;93.40;;;;;;5126639;28;20195;-80
2023/05/26 12:01:28;;;;;;;9.93;5.47;;;24.10;94.70;;;;;;5127683;28;20174;-80
2023/05/26 12:03:56;;;;;;;8.33;5.50;;;25.00;95.20;;;;;;5123339;28;20205;-81
2023/05/26 12:06:24;;;;;;;7.27;5.40;;;25.50;98.30;;;;;;5118395;28;20209;-80
2023/05/26 12:08:51;;;;;;;9.30;5.70;;;26.00;96.80;;;;;;5118224;28;20545;-81
2023/05/26 12:11:22;;;;;;;6.37;5.40;;;26.60;92.60;;;;;;5120124;28;20169;-80
2023/05/26 12:13:57;;;;;;;7.20;5.53;;;26.70;90.30;;;;;;5120379;28;20194;-81
2023/05/26 12:16:40;;;;;;;10.07;5.47;;;26.40;93.50;;;;;;5120527;28;20155;-84
2023/05/26 12:19:07;;;;;;;9.03;6.03;;;27.70;91.80;;;;;;5118511;28;20544;-85
2023/05/26 12:21:56;;;;;;;12.00;5.77;;;29.00;92.30;;;;;;5119666;28;20223;-83
2023/05/26 12:24:35;;;;;;;9.63;5.27;;;30.10;87.70;;;;;;5118327;28;20171;-85
2023/05/26 12:27:13;;;;;;;9.77;5.57;;;30.30;92.70;;;;;;5119717;28;20179;-84
2023/05/26 12:29:43;;;;;;;7.17;4.60;;;28.90;84.60;;;;;;5117888;28;20243;-83
2023/05/26 12:32:13;;;;;;;8.60;4.67;;;28.50;84.10;;;;;;5118531;28;20199;-83
2023/05/26 12:34:40;;;;;;;7.43;5.53;;;28.60;90.70;;;;;;5119809;28;20254;-84
2023/05/26 12:37:06;;;;;;;11.60;5.60;;;29.50;90.70;;;;;;5119235;28;20168;-85
2023/05/26 12:39:32;;;;;;;9.20;5.40;;;30.20;79.70;;;;;;5117989;28;20214;-85
2023/05/26 12:41:58;;;;;;;8.63;4.90;;;31.00;84.50;;;;;;5117056;28;20199;-84
2023/05/26 12:44:23;;;;;;;7.53;5.37;;;31.20;77.70;;;;;;5117314;28;20198;-85
2023/05/26 12:46:50;;;;;;;6.47;4.67;;;31.00;78.70;;;;;;5119054;28;20176;-84
2023/05/26 12:49:16;;;;;;;8.20;4.80;;;31.10;86.80;;;;;;5118592;28;20252;-83
2023/05/26 12:51:42;;;;;;;6.27;4.70;;;31.20;80.90;;;;;;5118907;28;20193;-83
2023/05/26 12:54:09;;;;;;;7.57;4.83;;;31.30;77.80;;;;;;5118816;28;20175;-83
2023/05/26 12:56:36;;;;;;;8.07;4.83;;;31.60;74.30;;;;;;5120604;28;20169;-85
2023/05/26 12:59:02;;;;;;;10.17;5.73;;;31.30;75.10;;;;;;5118906;28;20736;-83
2023/05/26 13:01:28;;;;;;;7.63;5.10;;;30.60;71.40;;;;;;5118369;28;20178;-83
2023/05/26 13:03:54;;;;;;;7.23;5.50;;;28.80;74.40;;;;;;5119247;28;20170;-85
2023/05/26 13:06:20;;;;;;;8.43;5.60;;;27.20;77.90;;;;;;5122608;28;20174;-83
2023/05/26 13:08:46;;;;;;;9.90;4.90;;;25.80;80.60;;;;;;5123569;28;20621;-82
2023/05/26 13:11:12;;;;;;;5.50;4.23;;;24.90;84.70;;;;;;5117518;28;20244;-81
2023/05/26 13:13:39;;;;;;;9.13;5.20;;;24.40;87.40;;;;;;5117263;28;20209;-83
2023/05/26 13:16:06;;;;;;;8.67;5.27;;;24.60;85.30;;;;;;5116321;28;20176;-84
2023/05/26 13:18:32;;;;;;;6.13;4.70;;;25.70;86.60;;;;;;5116124;28;20189;-85
2023/05/26 13:20:57;;;;;;;7.17;4.70;;;27.00;87.70;;;;;;5115150;28;20202;-83
2023/05/26 13:23:23;;;;;;;9.90;4.67;;;28.40;77.80;;;;;;5115665;28;20229;-83
2023/05/26 13:25:50;;;;;;;7.13;4.87;;;28.80;76.40;;;;;;5116620;28;20163;-83
2023/05/26 13:28:16;;;;;;;9.20;4.80;;;29.40;84.10;;;;;;5116607;28;20172;-85
2023/05/26 13:30:42;;;;;;;5.20;3.93;;;29.90;72.90;;;;;;5116078;28;20171;-85
2023/05/26 13:33:08;;;;;;;6.80;4.10;;;29.50;77.60;;;;;;5116470;28;20680;-84
2023/05/26 13:35:33;;;;;;;5.17;4.27;;;30.00;80.70;;;;;;5115372;28;20183;-86
2023/05/26 13:37:59;;;;;;;5.87;4.03;;;30.30;73.00;;;;;;5116855;28;20168;-86
2023/05/26 13:40:25;;;;;;;6.70;4.60;;;30.40;78.40;;;;;;5115962;28;20275;-86
2023/05/26 13:42:51;;;;;;;7.57;4.27;;;29.80;69.30;;;;;;5116483;28;20189;-84
2023/05/26 13:45:17;;;;;;;6.90;4.10;;;28.40;74.00;;;;;;5115690;28;20753;-84
2023/05/26 13:47:43;;;;;;;6.67;4.33;;;28.20;79.20;;;;;;5116438;28;20174;-84
2023/05/26 13:50:10;;;;;;;5.87;4.57;;;27.60;76.20;;;;;;5115474;28;20181;-84
2023/05/26 13:52:36;;;;;;;5.17;4.20;;;27.30;77.80;;;;;;5114391;28;20242;-83
2023/05/26 13:55:02;;;;;;;6.23;4.23;;;26.70;80.90;;;;;;5114967;28;20207;-82
2023/05/26 13:57:30;;;;;;;7.97;4.70;;;25.90;79.30;;;;;;5118300;28;20175;-85
2023/05/26 13:59:56;;;;;;;9.87;4.40;;;25.00;81.00;;;;;;5116720;28;20301;-83
2023/05/26 14:02:22;;;;;;;9.37;4.87;;;24.30;84.30;;;;;;5121895;28;20647;-85
2023/05/26 14:04:48;;;;;;;8.47;5.10;;;24.00;86.30;;;;;;5121261;28;20268;-84
2023/05/26 14:07:13;;;;;;;8.27;4.63;;;24.20;85.30;;;;;;5125058;28;20273;-84
2023/05/26 14:09:39;;;;;;;5.00;4.07;;;24.80;86.20;;;;;;5117060;28;20238;-85
2023/05/26 14:12:06;;;;;;;9.27;4.93;;;24.90;84.80;;;;;;5117447;28;20250;-85
2023/05/26 14:14:32;;;;;;;8.53;4.60;;;25.70;83.40;;;;;;5115232;28;20184;-83
2023/05/26 14:16:59;;;;;;;8.93;4.30;;;26.60;81.30;;;;;;5116400;28;20632;-82
2023/05/26 14:19:24;;;;;;;8.90;4.60;;;27.30;84.30;;;;;;5115404;28;20348;-84
2023/05/26 14:21:50;;;;;;;8.50;4.43;;;28.20;77.20;;;;;;5116930;28;20227;-84
2023/05/26 14:24:16;;;;;;;9.00;4.20;;;28.60;76.90;;;;;;5116809;28;20182;-85
2023/05/26 14:26:42;;;;;;;7.13;4.43;;;28.80;74.20;;;;;;5122642;28;20179;-82
2023/05/26 14:29:08;;;;;;;5.63;4.30;;;28.10;74.90;;;;;;5115719;28;20175;-83
2023/05/26 14:31:34;;;;;;;8.63;4.90;;;27.10;75.80;;;;;;5116474;28;20183;-82
2023/05/26 14:34:01;;;;;;;8.40;5.00;;;25.70;80.00;;;;;;5115158;28;20182;-82
2023/05/26 14:36:27;;;;;;;10.17;5.67;;;24.60;85.80;;;;;;5116490;28;20311;-84
2023/05/26 14:38:52;;;;;;;10.70;5.30;;;23.90;86.40;;;;;;5115777;28;20205;-83
2023/05/26 14:41:18;;;;;;;6.20;5.47;;;23.30;87.00;;;;;;5117366;28;20159;-83
2023/05/26 14:43:44;;;;;;;9.13;5.50;;;22.80;89.30;;;;;;5115619;28;20210;-84
2023/05/26 14:46:11;;;;;;;10.07;5.57;;;22.50;90.20;;;;;;5117490;28;20179;-86
2023/05/26 14:48:37;;;;;;;9.67;6.00;;;22.30;90.30;;;;;;5117897;28;20665;-84
2023/05/26 14:51:03;;;;;;;12.00;6.00;;;22.10;90.80;;;;;;5116433;28;20263;-85
2023/05/26 14:53:29;;;;;;;8.97;6.30;;;22.00;91.10;;;;;;5114796;28;20222;-84
2023/05/26 14:55:56;;;;;;;9.17;6.40;;;22.00;92.10;;;;;;5114226;28;20278;-85
2023/05/26 14:58:22;;;;;;;9.03;5.43;;;21.90;91.20;;;;;;5115988;28;20220;-83
2023/05/26 15:00:48;;;;;;;7.43;5.57;;;22.40;92.20;;;;;;5117719;28;20244;-81
2023/05/26 15:03:13;;;;;;;9.03;5.20;;;23.80;91.40;;;;;;5120442;28;20196;-83
2023/05/26 15:05:39;;;;;;;9.90;5.03;;;25.40;87.20;;;;;;5118899;28;20177;-84
2023/05/26 15:08:05;;;;;;;9.23;4.73;;;26.50;86.10;;;;;;5119014;28;20631;-83
2023/05/26 15:10:31;;;;;;;7.23;5.20;;;27.10;83.20;;;;;;5119926;28;20576;-83
2023/05/26 15:12:56;;;;;;;7.73;5.10;;;27.30;79.90;;;;;;5120594;28;20200;-84
2023/05/26 15:15:22;;;;;;;10.83;4.80;;;27.20;83.70;;;;;;5120004;28;20618;-82
2023/05/26 15:17:48;;;;;;;8.10;4.70;;;27.50;82.50;;;;;;5122805;28;20182;-82
2023/05/26 15:20:15;;;;;;;5.43;4.77;;;27.90;80.80;;;;;;5121590;28;20221;-85
2023/05/26 15:22:41;;;;;;;8.30;4.33;;;28.00;78.30;;;;;;5120612;28;20644;-84
2023/05/26 15:25:08;;;;;;;6.83;3.97;;;28.00;77.10;;;;;;5122565;28;20179;-82
2023/05/26 15:27:34;;;;;;;6.90;5.00;;;27.60;77.60;;;;;;5122055;28;20181;-82
2023/05/26 15:29:59;;;;;;;9.10;4.40;;;26.80;77.50;;;;;;5123992;27;20187;-84
2023/05/26 15:32:25;;;;;;;5.60;3.97;;;26.50;78.80;;;;;;5123187;28;20285;-85
2023/05/26 15:34:51;;;;;;;6.73;4.73;;;26.40;79.20;;;;;;5119370;28;20210;-84
2023/05/26 15:37:17;;;;;;;6.97;4.70;;;25.60;79.80;;;;;;5123793;28;20210;-84
2023/05/26 15:39:43;;;;;;;5.03;4.27;;;25.50;83.80;;;;;;5121818;28;20199;-83
2023/05/26 15:42:09;;;;;;;7.27;4.60;;;25.60;80.80;;;;;;5124422;28;20199;-82
2023/05/26 15:44:35;;;;;;;25.03;18.90;;;24.50;82.50;;;;;;5127121;28;20247;-81
2023/05/26 15:47:01;;;;;;;40.30;35.27;;;23.40;85.80;;;;;;5120909;27;20194;-81
2023/05/26 15:49:27;;;;;;;6.67;5.40;;;22.80;87.60;;;;;;5120562;28;20201;-81
2023/05/26 15:51:53;;;;;;;57.80;39.20;;;22.30;88.90;;;;;;5120017;28;20216;-83
2023/05/26 15:54:19;;;;;;;7.40;4.70;;;21.90;89.30;;;;;;5120226;28;20260;-82
2023/05/26 15:56:45;;;;;;;19.17;9.37;;;21.50;90.30;;;;;;5124791;28;20591;-83
2023/05/26 15:59:11;;;;;;;34.70;19.60;;;21.30;90.80;;;;;;5124340;28;20172;-84
2023/05/26 16:01:37;;;;;;;69.80;50.33;;;21.20;91.40;;;;;;5122370;28;20177;-83
2023/05/26 16:04:04;;;;;;;8.67;5.80;;;21.00;91.90;;;;;;5121702;28;20249;-83
2023/05/26 16:06:30;;;;;;;9.83;7.17;;;20.80;92.30;;;;;;5121663;28;20205;-83
2023/05/26 16:08:55;;;;;;;15.23;12.10;;;20.70;92.50;;;;;;5127847;28;20223;-85
2023/05/26 16:11:21;;;;;;;11.47;7.60;;;20.50;93.10;;;;;;5125623;28;20186;-84
2023/05/26 16:13:48;;;;;;;20.47;13.10;;;20.40;93.30;;;;;;5120519;28;20180;-81
2023/05/26 16:16:14;;;;;;;10.00;6.60;;;20.30;93.90;;;;;;5120817;27;20176;-82
2023/05/26 16:18:40;;;;;;;14.73;6.43;;;20.30;93.80;;;;;;5120336;28;20172;-83
2023/05/26 16:21:05;;;;;;;10.60;6.27;;;20.20;94.20;;;;;;5119495;28;20664;-83
2023/05/26 16:23:31;;;;;;;8.13;6.17;;;20.20;94.20;;;;;;5119219;28;20192;-83
2023/05/26 16:25:59;;;;;;;13.53;9.33;;;20.10;94.10;;;;;;5118225;28;20184;-81
2023/05/26 16:49:11;;;;;;;12.60;7.30;;;19.80;95.50;;;;;;5157562;27;20272;-81
2023/05/26 16:55:18;;;;;;;15.43;12.07;;;19.80;95.40;;;;;;5179400;27;20851;-83
2023/05/26 17:01:36;;;;;;;13.13;7.13;;;19.70;95.30;;;;;;5141749;27;20745;-81
2023/05/26 17:07:00;;;;;;;10.77;6.70;;;19.70;96.00;;;;;;5136681;27;20754;-81
2023/05/26 17:12:01;;;;;;;9.87;5.97;;;19.70;95.80;;;;;;5135175;27;20757;-81
2023/05/26 17:17:06;;;;;;;9.87;6.33;;;19.70;97.20;;;;;;5136201;27;20725;-80
2023/05/26 17:22:45;;;;;;;11.20;6.57;;;19.40;97.10;;;;;;5164396;27;20380;-83
2023/05/26 17:29:15;;;;;;;9.17;5.87;;;19.40;97.40;;;;;;5135348;27;20454;-80
2023/05/26 17:37:47;;;;;;;12.10;6.47;;;19.40;97.90;;;;;;5115702;27;20754;-81
2023/05/26 17:47:26;;;;;;;8.93;6.00;;;19.20;98.20;;;;;;5136312;27;20275;-80
2023/05/26 18:01:26;;;;;;;10.80;5.93;;;18.80;98.60;;;;;;5135567;27;20268;-80
